sensor_id;sensor_type;location;lat;lon;timestamp;temperature;humidity
3198;DHT22;1611;49.394;11.136;2023-12-20T00:00:20;6.30;71.80
3198;DHT22;1611;49.394;11.136;2023-12-20T00:02:47;6.30;72.60
3198;DHT22;1611;49.394;11.136;2023-12-20T00:05:14;6.30;72.60
3198;DHT22;1611;49.394;11.136;2023-12-20T00:07:41;6.30;72.60
3198;DHT22;1611;49.394;11.136;2023-12-20T00:10:08;6.30;72.30
3198;DHT22;1611;49.394;11.136;2023-12-20T00:12:35;6.30;72.40
3198;DHT22;1611;49.394;11.136;2023-12-20T00:15:03;6.40;72.30
3198;DHT22;1611;49.394;11.136;2023-12-20T00:17:30;6.30;72.40
3198;DHT22;1611;49.394;11.136;2023-12-20T00:19:57;6.40;72.60
3198;DHT22;1611;49.394;11.136;2023-12-20T00:22:23;6.40;72.70
3198;DHT22;1611;49.394;11.136;2023-12-20T00:24:50;6.40;72.40
3198;DHT22;1611;49.394;11.136;2023-12-20T00:27:17;6.50;72.60
3198;DHT22;1611;49.394;11.136;2023-12-20T00:29:43;6.40;72.40
3198;DHT22;1611;49.394;11.136;2023-12-20T00:32:14;6.50;72.60
3198;DHT22;1611;49.394;11.136;2023-12-20T00:34:41;6.40;73.10
3198;DHT22;1611;49.394;11.136;2023-12-20T00:37:08;6.50;73.80
3198;DHT22;1611;49.394;11.136;2023-12-20T00:39:34;6.40;74.30
3198;DHT22;1611;49.394;11.136;2023-12-20T00:42:01;6.40;74.50
3198;DHT22;1611;49.394;11.136;2023-12-20T00:44:28;6.40;74.20
3198;DHT22;1611;49.394;11.136;2023-12-20T00:46:55;6.40;74.40
3198;DHT22;1611;49.394;11.136;2023-12-20T00:49:23;6.40;75.20
3198;DHT22;1611;49.394;11.136;2023-12-20T00:51:49;6.40;75.00
3198;DHT22;1611;49.394;11.136;2023-12-20T00:54:18;6.50;75.70
3198;DHT22;1611;49.394;11.136;2023-12-20T00:56:44;6.50;75.20
3198;DHT22;1611;49.394;11.136;2023-12-20T00:59:11;6.50;75.40
3198;DHT22;1611;49.394;11.136;2023-12-20T01:01:38;6.50;75.10
3198;DHT22;1611;49.394;11.136;2023-12-20T01:04:05;6.50;75.30
3198;DHT22;1611;49.394;11.136;2023-12-20T01:06:33;6.40;75.80
3198;DHT22;1611;49.394;11.136;2023-12-20T01:08:59;6.50;76.50
3198;DHT22;1611;49.394;11.136;2023-12-20T01:11:26;6.50;76.30
3198;DHT22;1611;49.394;11.136;2023-12-20T01:13:53;6.60;77.10
3198;DHT22;1611;49.394;11.136;2023-12-20T01:16:20;6.50;77.50
3198;DHT22;1611;49.394;11.136;2023-12-20T01:18:47;6.50;77.60
3198;DHT22;1611;49.394;11.136;2023-12-20T01:21:14;6.60;78.20
3198;DHT22;1611;49.394;11.136;2023-12-20T01:23:42;6.60;78.00
3198;DHT22;1611;49.394;11.136;2023-12-20T01:26:09;6.60;78.00
3198;DHT22;1611;49.394;11.136;2023-12-20T01:28:36;6.60;77.60
3198;DHT22;1611;49.394;11.136;2023-12-20T01:31:03;6.70;77.60
3198;DHT22;1611;49.394;11.136;2023-12-20T01:33:29;6.70;77.40
3198;DHT22;1611;49.394;11.136;2023-12-20T01:35:56;6.70;77.60
3198;DHT22;1611;49.394;11.136;2023-12-20T01:38:23;6.80;77.20
3198;DHT22;1611;49.394;11.136;2023-12-20T01:40:51;6.70;77.20
3198;DHT22;1611;49.394;11.136;2023-12-20T01:43:18;6.70;77.20
3198;DHT22;1611;49.394;11.136;2023-12-20T01:45:44;6.70;77.20
3198;DHT22;1611;49.394;11.136;2023-12-20T01:48:11;6.70;77.60
3198;DHT22;1611;49.394;11.136;2023-12-20T01:50:39;6.70;77.60
3198;DHT22;1611;49.394;11.136;2023-12-20T01:53:08;6.70;77.90
3198;DHT22;1611;49.394;11.136;2023-12-20T01:55:39;6.70;77.70
3198;DHT22;1611;49.394;11.136;2023-12-20T01:58:09;6.70;76.90
3198;DHT22;1611;49.394;11.136;2023-12-20T02:00:36;6.60;77.60
3198;DHT22;1611;49.394;11.136;2023-12-20T02:03:04;6.70;77.30
3198;DHT22;1611;49.394;11.136;2023-12-20T02:05:31;6.70;77.20
3198;DHT22;1611;49.394;11.136;2023-12-20T02:07:58;6.70;76.90
3198;DHT22;1611;49.394;11.136;2023-12-20T02:10:25;6.70;76.90
3198;DHT22;1611;49.394;11.136;2023-12-20T02:12:52;6.70;76.80
3198;DHT22;1611;49.394;11.136;2023-12-20T02:15:20;6.90;76.30
3198;DHT22;1611;49.394;11.136;2023-12-20T02:17:47;6.90;75.90
3198;DHT22;1611;49.394;11.136;2023-12-20T02:20:14;6.90;75.40
3198;DHT22;1611;49.394;11.136;2023-12-20T02:22:42;6.80;75.40
3198;DHT22;1611;49.394;11.136;2023-12-20T02:25:09;6.80;75.20
3198;DHT22;1611;49.394;11.136;2023-12-20T02:27:36;6.70;75.40
3198;DHT22;1611;49.394;11.136;2023-12-20T02:30:04;6.70;74.80
3198;DHT22;1611;49.394;11.136;2023-12-20T02:32:31;6.80;74.70
3198;DHT22;1611;49.394;11.136;2023-12-20T02:34:57;6.70;74.10
3198;DHT22;1611;49.394;11.136;2023-12-20T02:37:24;6.70;73.80
3198;DHT22;1611;49.394;11.136;2023-12-20T02:39:52;6.70;74.10
3198;DHT22;1611;49.394;11.136;2023-12-20T02:42:19;6.50;73.30
3198;DHT22;1611;49.394;11.136;2023-12-20T02:44:46;6.50;73.80
3198;DHT22;1611;49.394;11.136;2023-12-20T02:47:12;6.40;73.70
3198;DHT22;1611;49.394;11.136;2023-12-20T02:49:39;6.50;74.10
3198;DHT22;1611;49.394;11.136;2023-12-20T02:52:06;6.50;74.30
3198;DHT22;1611;49.394;11.136;2023-12-20T02:54:32;6.30;73.80
3198;DHT22;1611;49.394;11.136;2023-12-20T02:57:01;6.30;74.10
3198;DHT22;1611;49.394;11.136;2023-12-20T02:59:27;6.20;74.10
3198;DHT22;1611;49.394;11.136;2023-12-20T03:01:54;6.20;74.40
3198;DHT22;1611;49.394;11.136;2023-12-20T03:04:21;6.10;74.10
3198;DHT22;1611;49.394;11.136;2023-12-20T03:06:47;6.00;74.50
3198;DHT22;1611;49.394;11.136;2023-12-20T03:09:14;5.90;74.80
3198;DHT22;1611;49.394;11.136;2023-12-20T03:11:41;5.90;75.30
3198;DHT22;1611;49.394;11.136;2023-12-20T03:14:09;5.80;74.90
3198;DHT22;1611;49.394;11.136;2023-12-20T03:16:36;5.80;74.80
3198;DHT22;1611;49.394;11.136;2023-12-20T03:19:02;5.80;75.20
3198;DHT22;1611;49.394;11.136;2023-12-20T03:21:29;5.80;74.50
3198;DHT22;1611;49.394;11.136;2023-12-20T03:23:56;5.80;74.60
3198;DHT22;1611;49.394;11.136;2023-12-20T03:26:22;5.70;75.10
3198;DHT22;1611;49.394;11.136;2023-12-20T03:28:49;5.70;75.00
3198;DHT22;1611;49.394;11.136;2023-12-20T03:31:17;5.70;74.20
3198;DHT22;1611;49.394;11.136;2023-12-20T03:33:45;5.70;74.00
3198;DHT22;1611;49.394;11.136;2023-12-20T03:36:11;5.70;74.10
3198;DHT22;1611;49.394;11.136;2023-12-20T03:38:38;5.70;74.80
3198;DHT22;1611;49.394;11.136;2023-12-20T03:41:06;5.70;74.70
3198;DHT22;1611;49.394;11.136;2023-12-20T03:43:33;5.80;74.60
3198;DHT22;1611;49.394;11.136;2023-12-20T03:46:00;5.80;74.20
3198;DHT22;1611;49.394;11.136;2023-12-20T03:48:30;5.80;74.50
3198;DHT22;1611;49.394;11.136;2023-12-20T03:50:57;5.90;74.60
3198;DHT22;1611;49.394;11.136;2023-12-20T03:53:24;5.90;74.10
3198;DHT22;1611;49.394;11.136;2023-12-20T03:55:50;5.90;73.80
3198;DHT22;1611;49.394;11.136;2023-12-20T03:58:17;5.90;74.30
3198;DHT22;1611;49.394;11.136;2023-12-20T04:00:44;5.90;74.00
3198;DHT22;1611;49.394;11.136;2023-12-20T04:03:10;5.90;74.10
3198;DHT22;1611;49.394;11.136;2023-12-20T04:05:40;5.90;74.00
3198;DHT22;1611;49.394;11.136;2023-12-20T04:08:07;5.90;74.00
3198;DHT22;1611;49.394;11.136;2023-12-20T04:10:34;5.80;74.00
3198;DHT22;1611;49.394;11.136;2023-12-20T04:13:03;5.70;74.10
3198;DHT22;1611;49.394;11.136;2023-12-20T04:15:29;5.80;74.10
3198;DHT22;1611;49.394;11.136;2023-12-20T04:17:56;5.80;74.10
3198;DHT22;1611;49.394;11.136;2023-12-20T04:20:23;5.90;74.20
3198;DHT22;1611;49.394;11.136;2023-12-20T04:22:51;5.90;74.20
3198;DHT22;1611;49.394;11.136;2023-12-20T04:25:18;5.90;73.70
3198;DHT22;1611;49.394;11.136;2023-12-20T04:27:44;5.90;73.60
3198;DHT22;1611;49.394;11.136;2023-12-20T04:30:12;5.80;73.10
3198;DHT22;1611;49.394;11.136;2023-12-20T04:32:38;5.80;73.20
3198;DHT22;1611;49.394;11.136;2023-12-20T04:35:05;5.80;74.20
3198;DHT22;1611;49.394;11.136;2023-12-20T04:37:34;5.90;74.30
3198;DHT22;1611;49.394;11.136;2023-12-20T04:40:02;5.90;74.30
3198;DHT22;1611;49.394;11.136;2023-12-20T04:42:30;5.80;74.20
3198;DHT22;1611;49.394;11.136;2023-12-20T04:44:57;5.90;74.20
3198;DHT22;1611;49.394;11.136;2023-12-20T04:47:24;5.90;74.10
3198;DHT22;1611;49.394;11.136;2023-12-20T04:49:50;5.90;74.10
3198;DHT22;1611;49.394;11.136;2023-12-20T04:52:17;5.90;74.00
3198;DHT22;1611;49.394;11.136;2023-12-20T04:54:44;5.80;73.60
3198;DHT22;1611;49.394;11.136;2023-12-20T04:57:12;5.80;74.20
3198;DHT22;1611;49.394;11.136;2023-12-20T04:59:39;5.90;74.00
3198;DHT22;1611;49.394;11.136;2023-12-20T05:02:06;5.90;74.40
3198;DHT22;1611;49.394;11.136;2023-12-20T05:04:33;5.90;74.20
3198;DHT22;1611;49.394;11.136;2023-12-20T05:07:00;5.90;73.80
3198;DHT22;1611;49.394;11.136;2023-12-20T05:09:26;5.90;74.30
3198;DHT22;1611;49.394;11.136;2023-12-20T05:11:53;5.80;74.20
3198;DHT22;1611;49.394;11.136;2023-12-20T05:14:21;5.90;74.10
3198;DHT22;1611;49.394;11.136;2023-12-20T05:16:48;5.90;73.80
3198;DHT22;1611;49.394;11.136;2023-12-20T05:19:14;6.00;73.90
3198;DHT22;1611;49.394;11.136;2023-12-20T05:21:41;6.10;73.60
3198;DHT22;1611;49.394;11.136;2023-12-20T05:24:08;5.90;73.90
3198;DHT22;1611;49.394;11.136;2023-12-20T05:26:35;5.90;73.10
3198;DHT22;1611;49.394;11.136;2023-12-20T05:29:01;5.80;73.60
3198;DHT22;1611;49.394;11.136;2023-12-20T05:31:30;5.80;73.60
3198;DHT22;1611;49.394;11.136;2023-12-20T05:33:57;5.80;74.10
3198;DHT22;1611;49.394;11.136;2023-12-20T05:36:24;5.90;73.90
3198;DHT22;1611;49.394;11.136;2023-12-20T05:38:50;5.80;73.70
3198;DHT22;1611;49.394;11.136;2023-12-20T05:41:17;5.80;73.10
3198;DHT22;1611;49.394;11.136;2023-12-20T05:43:44;5.80;72.70
3198;DHT22;1611;49.394;11.136;2023-12-20T05:46:11;5.80;72.80
3198;DHT22;1611;49.394;11.136;2023-12-20T05:48:39;5.80;73.40
3198;DHT22;1611;49.394;11.136;2023-12-20T05:51:05;5.80;73.40
3198;DHT22;1611;49.394;11.136;2023-12-20T05:53:33;5.90;73.80
3198;DHT22;1611;49.394;11.136;2023-12-20T05:56:00;5.90;73.10
3198;DHT22;1611;49.394;11.136;2023-12-20T05:58:26;5.80;73.30
3198;DHT22;1611;49.394;11.136;2023-12-20T06:00:54;5.80;73.30
3198;DHT22;1611;49.394;11.136;2023-12-20T06:03:21;5.70;73.50
3198;DHT22;1611;49.394;11.136;2023-12-20T06:05:50;5.80;73.70
3198;DHT22;1611;49.394;11.136;2023-12-20T06:08:17;5.70;74.50
3198;DHT22;1611;49.394;11.136;2023-12-20T06:10:44;5.70;73.60
3198;DHT22;1611;49.394;11.136;2023-12-20T06:13:11;5.70;73.60
3198;DHT22;1611;49.394;11.136;2023-12-20T06:15:38;5.70;74.00
3198;DHT22;1611;49.394;11.136;2023-12-20T06:18:05;5.70;73.80
3198;DHT22;1611;49.394;11.136;2023-12-20T06:20:32;5.60;74.20
3198;DHT22;1611;49.394;11.136;2023-12-20T06:23:00;5.70;74.10
3198;DHT22;1611;49.394;11.136;2023-12-20T06:25:27;5.60;74.20
3198;DHT22;1611;49.394;11.136;2023-12-20T06:27:54;5.60;73.80
3198;DHT22;1611;49.394;11.136;2023-12-20T06:30:20;5.60;74.00
3198;DHT22;1611;49.394;11.136;2023-12-20T06:32:47;5.60;74.30
3198;DHT22;1611;49.394;11.136;2023-12-20T06:35:14;5.60;74.70
3198;DHT22;1611;49.394;11.136;2023-12-20T06:37:41;5.70;74.80
3198;DHT22;1611;49.394;11.136;2023-12-20T06:40:11;5.80;74.60
3198;DHT22;1611;49.394;11.136;2023-12-20T06:42:37;5.80;74.40
3198;DHT22;1611;49.394;11.136;2023-12-20T06:45:05;5.80;74.20
3198;DHT22;1611;49.394;11.136;2023-12-20T06:47:32;5.70;74.40
3198;DHT22;1611;49.394;11.136;2023-12-20T06:49:59;5.80;74.60
3198;DHT22;1611;49.394;11.136;2023-12-20T06:52:26;5.80;74.30
3198;DHT22;1611;49.394;11.136;2023-12-20T06:54:52;5.80;74.00
3198;DHT22;1611;49.394;11.136;2023-12-20T06:57:20;5.80;74.30
3198;DHT22;1611;49.394;11.136;2023-12-20T06:59:47;5.90;74.60
3198;DHT22;1611;49.394;11.136;2023-12-20T07:02:14;5.90;74.40
3198;DHT22;1611;49.394;11.136;2023-12-20T07:04:40;5.90;74.30
3198;DHT22;1611;49.394;11.136;2023-12-20T07:07:07;5.90;74.30
3198;DHT22;1611;49.394;11.136;2023-12-20T07:09:34;5.90;74.40
3198;DHT22;1611;49.394;11.136;2023-12-20T07:12:02;6.00;74.30
3198;DHT22;1611;49.394;11.136;2023-12-20T07:14:30;5.90;74.70
3198;DHT22;1611;49.394;11.136;2023-12-20T07:16:57;5.90;74.70
3198;DHT22;1611;49.394;11.136;2023-12-20T07:19:23;6.00;74.70
3198;DHT22;1611;49.394;11.136;2023-12-20T07:21:50;6.00;74.80
3198;DHT22;1611;49.394;11.136;2023-12-20T07:24:17;6.00;74.60
3198;DHT22;1611;49.394;11.136;2023-12-20T07:26:43;6.00;75.00
3198;DHT22;1611;49.394;11.136;2023-12-20T07:29:10;6.00;74.80
3198;DHT22;1611;49.394;11.136;2023-12-20T07:31:38;6.20;79.70
3198;DHT22;1611;49.394;11.136;2023-12-20T07:34:05;6.20;77.30
3198;DHT22;1611;49.394;11.136;2023-12-20T07:36:32;6.30;78.10
3198;DHT22;1611;49.394;11.136;2023-12-20T07:38:58;6.50;79.10
3198;DHT22;1611;49.394;11.136;2023-12-20T07:41:25;6.60;76.30
3198;DHT22;1611;49.394;11.136;2023-12-20T07:43:52;6.40;74.40
3198;DHT22;1611;49.394;11.136;2023-12-20T07:46:20;6.40;73.60
3198;DHT22;1611;49.394;11.136;2023-12-20T07:48:50;6.40;73.10
3198;DHT22;1611;49.394;11.136;2023-12-20T07:51:17;6.40;73.00
3198;DHT22;1611;49.394;11.136;2023-12-20T07:53:44;6.40;73.20
3198;DHT22;1611;49.394;11.136;2023-12-20T07:56:14;6.40;73.50
3198;DHT22;1611;49.394;11.136;2023-12-20T07:58:41;6.30;73.50
3198;DHT22;1611;49.394;11.136;2023-12-20T08:01:08;6.20;73.80
3198;DHT22;1611;49.394;11.136;2023-12-20T08:03:35;6.30;74.00
3198;DHT22;1611;49.394;11.136;2023-12-20T08:06:03;6.20;74.40
3198;DHT22;1611;49.394;11.136;2023-12-20T08:08:30;6.10;74.60
3198;DHT22;1611;49.394;11.136;2023-12-20T08:10:57;6.10;75.30
3198;DHT22;1611;49.394;11.136;2023-12-20T08:13:25;6.10;75.40
3198;DHT22;1611;49.394;11.136;2023-12-20T08:15:53;6.30;75.50
3198;DHT22;1611;49.394;11.136;2023-12-20T08:18:21;6.30;75.10
3198;DHT22;1611;49.394;11.136;2023-12-20T08:20:48;6.30;75.10
3198;DHT22;1611;49.394;11.136;2023-12-20T08:23:16;6.20;74.60
3198;DHT22;1611;49.394;11.136;2023-12-20T08:25:43;6.20;75.20
3198;DHT22;1611;49.394;11.136;2023-12-20T08:28:10;6.30;75.50
3198;DHT22;1611;49.394;11.136;2023-12-20T08:30:36;6.40;75.10
3198;DHT22;1611;49.394;11.136;2023-12-20T08:33:04;6.30;75.30
3198;DHT22;1611;49.394;11.136;2023-12-20T08:35:33;6.20;75.00
3198;DHT22;1611;49.394;11.136;2023-12-20T08:37:59;6.10;75.70
3198;DHT22;1611;49.394;11.136;2023-12-20T08:40:27;6.20;75.90
3198;DHT22;1611;49.394;11.136;2023-12-20T08:42:54;6.10;75.70
3198;DHT22;1611;49.394;11.136;2023-12-20T08:45:21;6.10;76.30
3198;DHT22;1611;49.394;11.136;2023-12-20T08:47:48;6.20;76.60
3198;DHT22;1611;49.394;11.136;2023-12-20T08:50:14;6.30;76.60
3198;DHT22;1611;49.394;11.136;2023-12-20T08:52:41;6.40;75.00
3198;DHT22;1611;49.394;11.136;2023-12-20T08:55:08;6.50;74.70
3198;DHT22;1611;49.394;11.136;2023-12-20T08:57:37;6.60;73.80
3198;DHT22;1611;49.394;11.136;2023-12-20T09:00:05;6.60;73.20
3198;DHT22;1611;49.394;11.136;2023-12-20T09:02:33;6.70;72.50
3198;DHT22;1611;49.394;11.136;2023-12-20T09:05:01;6.70;72.30
3198;DHT22;1611;49.394;11.136;2023-12-20T09:07:28;6.80;72.20
3198;DHT22;1611;49.394;11.136;2023-12-20T09:09:56;6.90;71.80
3198;DHT22;1611;49.394;11.136;2023-12-20T09:12:23;7.00;71.60
3198;DHT22;1611;49.394;11.136;2023-12-20T09:14:52;7.00;69.10
3198;DHT22;1611;49.394;11.136;2023-12-20T09:17:19;7.00;67.20
3198;DHT22;1611;49.394;11.136;2023-12-20T09:19:46;7.00;66.70
3198;DHT22;1611;49.394;11.136;2023-12-20T09:22:12;7.10;70.30
3198;DHT22;1611;49.394;11.136;2023-12-20T09:24:39;7.10;69.00
3198;DHT22;1611;49.394;11.136;2023-12-20T09:27:06;7.10;66.00
3198;DHT22;1611;49.394;11.136;2023-12-20T09:29:33;7.10;66.10
3198;DHT22;1611;49.394;11.136;2023-12-20T09:32:01;7.00;65.20
3198;DHT22;1611;49.394;11.136;2023-12-20T09:34:28;6.90;65.90
3198;DHT22;1611;49.394;11.136;2023-12-20T09:36:55;6.80;66.00
3198;DHT22;1611;49.394;11.136;2023-12-20T09:39:21;6.60;66.30
3198;DHT22;1611;49.394;11.136;2023-12-20T09:41:55;6.60;66.70
3198;DHT22;1611;49.394;11.136;2023-12-20T09:44:26;6.50;66.90
3198;DHT22;1611;49.394;11.136;2023-12-20T09:46:53;6.20;66.40
3198;DHT22;1611;49.394;11.136;2023-12-20T09:49:22;6.10;67.00
3198;DHT22;1611;49.394;11.136;2023-12-20T09:51:51;6.20;67.30
3198;DHT22;1611;49.394;11.136;2023-12-20T09:54:18;6.10;66.30
3198;DHT22;1611;49.394;11.136;2023-12-20T09:56:45;6.20;65.90
3198;DHT22;1611;49.394;11.136;2023-12-20T09:59:12;6.20;66.60
3198;DHT22;1611;49.394;11.136;2023-12-20T10:01:40;6.20;66.80
3198;DHT22;1611;49.394;11.136;2023-12-20T10:04:09;6.30;66.00
3198;DHT22;1611;49.394;11.136;2023-12-20T10:06:39;6.50;63.50
3198;DHT22;1611;49.394;11.136;2023-12-20T10:09:06;6.60;62.00
3198;DHT22;1611;49.394;11.136;2023-12-20T10:11:32;6.70;62.20
3198;DHT22;1611;49.394;11.136;2023-12-20T10:14:03;6.80;61.20
3198;DHT22;1611;49.394;11.136;2023-12-20T10:16:30;7.00;62.50
3198;DHT22;1611;49.394;11.136;2023-12-20T10:18:58;7.10;62.30
3198;DHT22;1611;49.394;11.136;2023-12-20T10:21:25;7.10;59.20
3198;DHT22;1611;49.394;11.136;2023-12-20T10:23:54;7.00;58.90
3198;DHT22;1611;49.394;11.136;2023-12-20T10:26:21;6.90;57.50
3198;DHT22;1611;49.394;11.136;2023-12-20T10:28:50;6.80;57.60
3198;DHT22;1611;49.394;11.136;2023-12-20T10:31:28;6.90;59.10
3198;DHT22;1611;49.394;11.136;2023-12-20T10:33:57;6.70;55.80
3198;DHT22;1611;49.394;11.136;2023-12-20T10:36:25;6.80;56.40
3198;DHT22;1611;49.394;11.136;2023-12-20T10:38:55;6.80;58.20
3198;DHT22;1611;49.394;11.136;2023-12-20T10:41:25;6.90;57.90
3198;DHT22;1611;49.394;11.136;2023-12-20T10:43:55;7.10;57.60
3198;DHT22;1611;49.394;11.136;2023-12-20T10:46:22;7.10;57.00
3198;DHT22;1611;49.394;11.136;2023-12-20T10:48:53;7.30;57.30
3198;DHT22;1611;49.394;11.136;2023-12-20T10:51:20;7.30;53.60
3198;DHT22;1611;49.394;11.136;2023-12-20T10:53:48;7.40;55.00
3198;DHT22;1611;49.394;11.136;2023-12-20T10:56:18;7.60;53.60
3198;DHT22;1611;49.394;11.136;2023-12-20T10:58:45;7.70;51.90
3198;DHT22;1611;49.394;11.136;2023-12-20T11:01:13;7.80;52.20
3198;DHT22;1611;49.394;11.136;2023-12-20T11:03:44;7.80;52.00
3198;DHT22;1611;49.394;11.136;2023-12-20T11:06:26;7.80;53.60
3198;DHT22;1611;49.394;11.136;2023-12-20T11:09:01;7.60;52.80
3198;DHT22;1611;49.394;11.136;2023-12-20T11:11:43;7.60;53.10
3198;DHT22;1611;49.394;11.136;2023-12-20T11:14:17;7.50;52.60
3198;DHT22;1611;49.394;11.136;2023-12-20T11:16:45;7.40;54.00
3198;DHT22;1611;49.394;11.136;2023-12-20T11:19:12;7.30;54.50
3198;DHT22;1611;49.394;11.136;2023-12-20T11:21:40;7.20;54.90
3198;DHT22;1611;49.394;11.136;2023-12-20T11:24:07;7.20;55.10
3198;DHT22;1611;49.394;11.136;2023-12-20T11:26:35;7.30;54.50
3198;DHT22;1611;49.394;11.136;2023-12-20T11:29:29;7.30;54.90
3198;DHT22;1611;49.394;11.136;2023-12-20T11:31:56;7.30;55.70
3198;DHT22;1611;49.394;11.136;2023-12-20T11:34:27;7.40;56.40
3198;DHT22;1611;49.394;11.136;2023-12-20T11:36:57;7.30;55.00
3198;DHT22;1611;49.394;11.136;2023-12-20T11:39:25;7.30;56.00
3198;DHT22;1611;49.394;11.136;2023-12-20T11:41:54;7.30;57.10
3198;DHT22;1611;49.394;11.136;2023-12-20T11:44:21;7.30;58.40
3198;DHT22;1611;49.394;11.136;2023-12-20T11:46:48;7.10;57.60
3198;DHT22;1611;49.394;11.136;2023-12-20T11:49:15;7.10;58.80
3198;DHT22;1611;49.394;11.136;2023-12-20T11:51:42;7.10;59.30
3198;DHT22;1611;49.394;11.136;2023-12-20T11:54:09;6.90;59.80
3198;DHT22;1611;49.394;11.136;2023-12-20T11:56:36;6.90;60.40
3198;DHT22;1611;49.394;11.136;2023-12-20T11:59:04;7.00;59.50
3198;DHT22;1611;49.394;11.136;2023-12-20T12:01:31;6.90;59.20
3198;DHT22;1611;49.394;11.136;2023-12-20T12:04:05;7.00;60.40
3198;DHT22;1611;49.394;11.136;2023-12-20T12:06:32;7.10;59.60
3198;DHT22;1611;49.394;11.136;2023-12-20T12:08:58;7.00;58.30
3198;DHT22;1611;49.394;11.136;2023-12-20T12:11:25;6.90;58.20
3198;DHT22;1611;49.394;11.136;2023-12-20T12:13:52;6.80;58.80
3198;DHT22;1611;49.394;11.136;2023-12-20T12:16:21;6.80;58.30
3198;DHT22;1611;49.394;11.136;2023-12-20T12:18:55;6.80;59.40
3198;DHT22;1611;49.394;11.136;2023-12-20T12:21:22;6.80;58.90
3198;DHT22;1611;49.394;11.136;2023-12-20T12:23:49;6.80;57.90
3198;DHT22;1611;49.394;11.136;2023-12-20T12:26:16;6.90;58.30
3198;DHT22;1611;49.394;11.136;2023-12-20T12:28:43;7.00;59.10
3198;DHT22;1611;49.394;11.136;2023-12-20T12:31:13;7.00;58.50
3198;DHT22;1611;49.394;11.136;2023-12-20T12:33:42;7.00;57.30
3198;DHT22;1611;49.394;11.136;2023-12-20T12:36:10;7.00;56.20
3198;DHT22;1611;49.394;11.136;2023-12-20T12:38:37;7.10;56.60
3198;DHT22;1611;49.394;11.136;2023-12-20T12:41:04;7.20;56.80
3198;DHT22;1611;49.394;11.136;2023-12-20T12:43:32;7.00;57.70
3198;DHT22;1611;49.394;11.136;2023-12-20T12:46:00;7.00;57.20
3198;DHT22;1611;49.394;11.136;2023-12-20T12:48:27;7.00;57.00
3198;DHT22;1611;49.394;11.136;2023-12-20T12:50:56;6.90;57.50
3198;DHT22;1611;49.394;11.136;2023-12-20T12:53:25;7.00;57.70
3198;DHT22;1611;49.394;11.136;2023-12-20T12:55:53;7.00;56.10
3198;DHT22;1611;49.394;11.136;2023-12-20T12:58:20;7.00;57.00
3198;DHT22;1611;49.394;11.136;2023-12-20T13:00:48;7.00;57.70
3198;DHT22;1611;49.394;11.136;2023-12-20T13:03:15;7.00;56.30
3198;DHT22;1611;49.394;11.136;2023-12-20T13:05:42;7.10;57.40
3198;DHT22;1611;49.394;11.136;2023-12-20T13:08:11;7.10;56.90
3198;DHT22;1611;49.394;11.136;2023-12-20T13:10:39;7.10;56.10
3198;DHT22;1611;49.394;11.136;2023-12-20T13:13:06;7.20;57.10
3198;DHT22;1611;49.394;11.136;2023-12-20T13:15:32;7.20;55.80
3198;DHT22;1611;49.394;11.136;2023-12-20T13:17:59;7.10;56.50
3198;DHT22;1611;49.394;11.136;2023-12-20T13:20:26;7.10;55.90
3198;DHT22;1611;49.394;11.136;2023-12-20T13:22:53;7.10;56.70
3198;DHT22;1611;49.394;11.136;2023-12-20T13:25:21;7.00;55.90
3198;DHT22;1611;49.394;11.136;2023-12-20T13:27:48;6.90;55.00
3198;DHT22;1611;49.394;11.136;2023-12-20T13:30:16;6.90;55.80
3198;DHT22;1611;49.394;11.136;2023-12-20T13:32:43;6.90;55.70
3198;DHT22;1611;49.394;11.136;2023-12-20T13:35:10;6.90;56.80
3198;DHT22;1611;49.394;11.136;2023-12-20T13:37:36;7.00;56.60
3198;DHT22;1611;49.394;11.136;2023-12-20T13:40:04;7.00;56.10
3198;DHT22;1611;49.394;11.136;2023-12-20T13:42:33;7.20;55.60
3198;DHT22;1611;49.394;11.136;2023-12-20T13:45:03;7.20;54.70
3198;DHT22;1611;49.394;11.136;2023-12-20T13:47:30;7.10;54.50
3198;DHT22;1611;49.394;11.136;2023-12-20T13:49:57;7.10;54.20
3198;DHT22;1611;49.394;11.136;2023-12-20T13:52:24;7.00;54.00
3198;DHT22;1611;49.394;11.136;2023-12-20T13:58:14;6.80;54.90
3198;DHT22;1611;49.394;11.136;2023-12-20T14:00:41;6.80;54.50
3198;DHT22;1611;49.394;11.136;2023-12-20T14:03:08;6.70;54.50
3198;DHT22;1611;49.394;11.136;2023-12-20T14:05:35;6.60;55.50
3198;DHT22;1611;49.394;11.136;2023-12-20T14:08:03;6.60;56.00
3198;DHT22;1611;49.394;11.136;2023-12-20T14:10:29;6.60;55.40
3198;DHT22;1611;49.394;11.136;2023-12-20T14:12:56;6.50;55.60
3198;DHT22;1611;49.394;11.136;2023-12-20T14:15:24;6.50;54.20
3198;DHT22;1611;49.394;11.136;2023-12-20T14:17:51;6.50;54.40
3198;DHT22;1611;49.394;11.136;2023-12-20T14:20:18;6.50;55.30
3198;DHT22;1611;49.394;11.136;2023-12-20T14:22:45;6.60;54.20
3198;DHT22;1611;49.394;11.136;2023-12-20T14:25:12;6.60;54.90
3198;DHT22;1611;49.394;11.136;2023-12-20T14:27:39;6.60;55.40
3198;DHT22;1611;49.394;11.136;2023-12-20T14:30:07;6.50;55.60
3198;DHT22;1611;49.394;11.136;2023-12-20T14:32:36;6.50;56.80
3198;DHT22;1611;49.394;11.136;2023-12-20T14:35:04;6.50;57.00
3198;DHT22;1611;49.394;11.136;2023-12-20T14:37:31;6.40;58.20
3198;DHT22;1611;49.394;11.136;2023-12-20T14:39:58;6.50;58.50
3198;DHT22;1611;49.394;11.136;2023-12-20T14:42:25;6.50;57.10
3198;DHT22;1611;49.394;11.136;2023-12-20T14:44:52;6.50;57.20
3198;DHT22;1611;49.394;11.136;2023-12-20T14:47:19;6.60;57.60
3198;DHT22;1611;49.394;11.136;2023-12-20T14:49:48;6.50;56.80
3198;DHT22;1611;49.394;11.136;2023-12-20T14:52:14;6.60;58.00
3198;DHT22;1611;49.394;11.136;2023-12-20T14:54:41;6.40;56.20
3198;DHT22;1611;49.394;11.136;2023-12-20T14:57:09;6.50;56.50
3198;DHT22;1611;49.394;11.136;2023-12-20T14:59:35;6.40;56.90
3198;DHT22;1611;49.394;11.136;2023-12-20T15:02:02;6.50;61.00
3198;DHT22;1611;49.394;11.136;2023-12-20T15:04:30;6.50;62.20
3198;DHT22;1611;49.394;11.136;2023-12-20T15:06:58;6.50;61.00
3198;DHT22;1611;49.394;11.136;2023-12-20T15:09:26;6.60;59.00
3198;DHT22;1611;49.394;11.136;2023-12-20T15:11:54;6.50;57.00
3198;DHT22;1611;49.394;11.136;2023-12-20T15:14:21;6.50;57.10
3198;DHT22;1611;49.394;11.136;2023-12-20T15:16:48;6.40;57.00
3198;DHT22;1611;49.394;11.136;2023-12-20T15:19:15;6.30;58.10
3198;DHT22;1611;49.394;11.136;2023-12-20T15:21:42;6.40;57.80
3198;DHT22;1611;49.394;11.136;2023-12-20T15:24:10;6.30;58.00
3198;DHT22;1611;49.394;11.136;2023-12-20T15:26:40;6.30;58.30
3198;DHT22;1611;49.394;11.136;2023-12-20T15:29:07;6.20;58.50
3198;DHT22;1611;49.394;11.136;2023-12-20T15:31:35;6.00;57.30
3198;DHT22;1611;49.394;11.136;2023-12-20T15:34:02;6.10;58.00
3198;DHT22;1611;49.394;11.136;2023-12-20T15:36:29;6.10;58.50
3198;DHT22;1611;49.394;11.136;2023-12-20T15:38:56;6.10;58.40
3198;DHT22;1611;49.394;11.136;2023-12-20T15:41:24;6.00;58.30
3198;DHT22;1611;49.394;11.136;2023-12-20T15:43:51;6.00;58.30
3198;DHT22;1611;49.394;11.136;2023-12-20T15:46:18;6.10;58.40
3198;DHT22;1611;49.394;11.136;2023-12-20T15:48:44;6.10;58.30
3198;DHT22;1611;49.394;11.136;2023-12-20T15:51:11;6.10;57.30
3198;DHT22;1611;49.394;11.136;2023-12-20T15:53:38;6.10;57.90
3198;DHT22;1611;49.394;11.136;2023-12-20T15:56:06;6.20;57.60
3198;DHT22;1611;49.394;11.136;2023-12-20T15:58:34;6.20;56.40
3198;DHT22;1611;49.394;11.136;2023-12-20T16:01:00;6.10;56.30
3198;DHT22;1611;49.394;11.136;2023-12-20T16:03:27;6.20;56.90
3198;DHT22;1611;49.394;11.136;2023-12-20T16:05:54;6.10;56.60